sensor_id;sensor_type;location;lat;lon;timestamp;pressure;altitude;pressure_sealevel;temperature;humidity
47716;BME280;33476;50.984;3.538;2023-03-15T00:01:00;101362.88;;;8.25;62.94
47716;BME280;33476;50.984;3.538;2023-03-15T00:03:26;101354.22;;;8.24;63.12
47716;BME280;33476;50.984;3.538;2023-03-15T00:05:51;101355.88;;;8.27;62.66
47716;BME280;33476;50.984;3.538;2023-03-15T00:08:17;101362.84;;;8.26;63.14
47716;BME280;33476;50.984;3.538;2023-03-15T00:10:44;101376.75;;;8.25;62.97
47716;BME280;33476;50.984;3.538;2023-03-15T00:13:11;101370.69;;;8.25;63.28
47716;BME280;33476;50.984;3.538;2023-03-15T00:15:47;101369.91;;;8.23;62.72
47716;BME280;33476;50.984;3.538;2023-03-15T00:18:13;101374.16;;;8.25;62.96
47716;BME280;33476;50.984;3.538;2023-03-15T00:20:38;101381.09;;;8.25;62.73
47716;BME280;33476;50.984;3.538;2023-03-15T00:23:04;101377.59;;;8.26;63.14
47716;BME280;33476;50.984;3.538;2023-03-15T00:25:29;101383.75;;;8.23;63.31
47716;BME280;33476;50.984;3.538;2023-03-15T00:27:55;101384.72;;;8.19;63.73
47716;BME280;33476;50.984;3.538;2023-03-15T00:30:20;101390.75;;;8.21;63.40
47716;BME280;33476;50.984;3.538;2023-03-15T00:32:45;101389.06;;;8.20;63.97
47716;BME280;33476;50.984;3.538;2023-03-15T00:35:11;101397.78;;;8.17;63.66
47716;BME280;33476;50.984;3.538;2023-03-15T00:37:42;101391.72;;;8.17;63.77
47716;BME280;33476;50.984;3.538;2023-03-15T00:40:08;101401.22;;;8.20;63.67
47716;BME280;33476;50.984;3.538;2023-03-15T00:42:34;101399.53;;;8.17;63.37
47716;BME280;33476;50.984;3.538;2023-03-15T00:44:59;101402.19;;;8.15;64.22
47716;BME280;33476;50.984;3.538;2023-03-15T00:47:24;101408.38;;;8.11;64.01
47716;BME280;33476;50.984;3.538;2023-03-15T00:49:50;101409.25;;;8.10;64.04
47716;BME280;33476;50.984;3.538;2023-03-15T00:52:16;101405.00;;;8.08;63.98
47716;BME280;33476;50.984;3.538;2023-03-15T00:54:42;101408.34;;;8.13;63.85
47716;BME280;33476;50.984;3.538;2023-03-15T00:57:08;101409.94;;;8.17;63.99
47716;BME280;33476;50.984;3.538;2023-03-15T00:59:33;101411.63;;;8.20;63.54
47716;BME280;33476;50.984;3.538;2023-03-15T01:02:03;101418.44;;;8.24;64.17
47716;BME280;33476;50.984;3.538;2023-03-15T01:04:28;101423.47;;;8.30;63.73
47716;BME280;33476;50.984;3.538;2023-03-15T01:06:56;101421.78;;;8.29;63.21
47716;BME280;33476;50.984;3.538;2023-03-15T01:09:21;101419.16;;;8.29;63.67
47716;BME280;33476;50.984;3.538;2023-03-15T01:11:47;101429.53;;;8.30;63.98
47716;BME280;33476;50.984;3.538;2023-03-15T01:14:12;101427.72;;;8.32;63.41
47716;BME280;33476;50.984;3.538;2023-03-15T01:16:37;101429.44;;;8.33;63.28
47716;BME280;33476;50.984;3.538;2023-03-15T01:19:03;101419.00;;;8.35;63.83
47716;BME280;33476;50.984;3.538;2023-03-15T01:21:28;101417.25;;;8.34;63.36
47716;BME280;33476;50.984;3.538;2023-03-15T01:23:53;101425.00;;;8.38;63.39
47716;BME280;33476;50.984;3.538;2023-03-15T01:26:19;101434.50;;;8.39;63.87
47716;BME280;33476;50.984;3.538;2023-03-15T01:28:44;101437.09;;;8.39;63.23
47716;BME280;33476;50.984;3.538;2023-03-15T01:31:28;101445.91;;;8.34;63.60
47716;BME280;33476;50.984;3.538;2023-03-15T01:33:55;101446.72;;;8.37;64.03
47716;BME280;33476;50.984;3.538;2023-03-15T01:36:21;101462.31;;;8.37;63.72
47716;BME280;33476;50.984;3.538;2023-03-15T01:38:46;101461.50;;;8.35;64.01
47716;BME280;33476;50.984;3.538;2023-03-15T01:41:14;101461.56;;;8.32;64.77
47716;BME280;33476;50.984;3.538;2023-03-15T01:43:40;101462.41;;;8.33;64.02
47716;BME280;33476;50.984;3.538;2023-03-15T01:49:05;101465.97;;;8.30;64.27
47716;BME280;33476;50.984;3.538;2023-03-15T01:51:45;101461.72;;;8.28;64.77
47716;BME280;33476;50.984;3.538;2023-03-15T01:54:25;101466.91;;;8.28;64.43
47716;BME280;33476;50.984;3.538;2023-03-15T01:56:57;101466.97;;;8.25;64.61
47716;BME280;33476;50.984;3.538;2023-03-15T01:59:38;101462.72;;;8.22;64.26
47716;BME280;33476;50.984;3.538;2023-03-15T02:02:04;101464.44;;;8.23;64.90
47716;BME280;33476;50.984;3.538;2023-03-15T02:04:35;101465.47;;;8.16;64.89
47716;BME280;33476;50.984;3.538;2023-03-15T02:07:03;101467.19;;;8.17;64.75
47716;BME280;33476;50.984;3.538;2023-03-15T02:10:21;101469.88;;;8.14;64.71
47716;BME280;33476;50.984;3.538;2023-03-15T02:12:47;101468.81;;;8.21;64.58
47716;BME280;33476;50.984;3.538;2023-03-15T02:15:16;101473.09;;;8.24;64.34
47716;BME280;33476;50.984;3.538;2023-03-15T02:17:44;101480.03;;;8.23;64.42
47716;BME280;33476;50.984;3.538;2023-03-15T02:22:49;101480.25;;;8.15;65.13
47716;BME280;33476;50.984;3.538;2023-03-15T02:28:02;101478.59;;;8.13;65.01
47716;BME280;33476;50.984;3.538;2023-03-15T02:30:28;101488.25;;;8.08;65.00
47716;BME280;33476;50.984;3.538;2023-03-15T02:32:53;101492.50;;;8.10;65.29
47716;BME280;33476;50.984;3.538;2023-03-15T02:35:28;101490.06;;;8.06;65.30
47716;BME280;33476;50.984;3.538;2023-03-15T02:37:54;101483.84;;;8.10;65.34
47716;BME280;33476;50.984;3.538;2023-03-15T02:40:22;101481.25;;;8.10;65.32
47716;BME280;33476;50.984;3.538;2023-03-15T02:42:53;101488.31;;;8.06;65.39
47716;BME280;33476;50.984;3.538;2023-03-15T02:45:20;101488.19;;;8.11;65.43
47716;BME280;33476;50.984;3.538;2023-03-15T02:47:47;101489.06;;;8.10;65.39
47716;BME280;33476;50.984;3.538;2023-03-15T02:50:13;101502.13;;;8.08;65.61
47716;BME280;33476;50.984;3.538;2023-03-15T02:52:38;101504.81;;;8.05;65.18
47716;BME280;33476;50.984;3.538;2023-03-15T02:55:04;101516.13;;;8.04;65.30
47716;BME280;33476;50.984;3.538;2023-03-15T02:57:30;101516.13;;;8.04;65.04
47716;BME280;33476;50.984;3.538;2023-03-15T02:59:55;101519.56;;;8.05;65.19
47716;BME280;33476;50.984;3.538;2023-03-15T03:02:21;101527.47;;;8.00;65.40
47716;BME280;33476;50.984;3.538;2023-03-15T03:04:47;101527.63;;;7.94;65.35
47716;BME280;33476;50.984;3.538;2023-03-15T03:07:13;101538.94;;;7.93;65.27
47716;BME280;33476;50.984;3.538;2023-03-15T03:09:38;101539.03;;;7.90;65.10
47716;BME280;33476;50.984;3.538;2023-03-15T03:12:04;101543.31;;;7.91;65.44
47716;BME280;33476;50.984;3.538;2023-03-15T03:14:29;101542.38;;;7.94;65.35
47716;BME280;33476;50.984;3.538;2023-03-15T03:16:55;101551.03;;;7.94;64.98
47716;BME280;33476;50.984;3.538;2023-03-15T03:19:20;101548.38;;;7.97;65.20
47716;BME280;33476;50.984;3.538;2023-03-15T03:21:52;101552.78;;;7.95;65.25
47716;BME280;33476;50.984;3.538;2023-03-15T03:24:18;101555.38;;;7.94;65.88
47716;BME280;33476;50.984;3.538;2023-03-15T03:26:44;101565.72;;;7.97;65.16
47716;BME280;33476;50.984;3.538;2023-03-15T03:29:13;101571.75;;;7.99;65.13
47716;BME280;33476;50.984;3.538;2023-03-15T03:31:42;101567.31;;;8.02;64.93
47716;BME280;33476;50.984;3.538;2023-03-15T03:34:08;101568.19;;;8.01;65.10
47716;BME280;33476;50.984;3.538;2023-03-15T03:36:35;101575.16;;;8.01;65.56
47716;BME280;33476;50.984;3.538;2023-03-15T03:39:00;101568.25;;;8.00;64.80
47716;BME280;33476;50.984;3.538;2023-03-15T03:41:26;101566.66;;;7.94;65.11
47716;BME280;33476;50.984;3.538;2023-03-15T03:43:51;101568.44;;;7.92;64.80
47716;BME280;33476;50.984;3.538;2023-03-15T03:46:17;101583.28;;;7.88;64.73
47716;BME280;33476;50.984;3.538;2023-03-15T03:48:42;101584.28;;;7.83;64.39
47716;BME280;33476;50.984;3.538;2023-03-15T03:51:08;101589.59;;;7.78;64.65
47716;BME280;33476;50.984;3.538;2023-03-15T03:53:33;101589.69;;;7.74;65.19
47716;BME280;33476;50.984;3.538;2023-03-15T03:55:58;101581.91;;;7.74;64.60
47716;BME280;33476;50.984;3.538;2023-03-15T03:58:24;101585.47;;;7.70;65.05
47716;BME280;33476;50.984;3.538;2023-03-15T04:00:51;101592.47;;;7.66;64.42
47716;BME280;33476;50.984;3.538;2023-03-15T04:03:18;101600.38;;;7.63;64.84
47716;BME280;33476;50.984;3.538;2023-03-15T04:05:44;101599.63;;;7.56;65.07
47716;BME280;33476;50.984;3.538;2023-03-15T04:08:10;101604.06;;;7.51;64.77
47716;BME280;33476;50.984;3.538;2023-03-15T04:10:35;101603.31;;;7.48;64.60
47716;BME280;33476;50.984;3.538;2023-03-15T04:13:01;101611.19;;;7.45;64.46
47716;BME280;33476;50.984;3.538;2023-03-15T04:15:27;101608.63;;;7.42;64.16
47716;BME280;33476;50.984;3.538;2023-03-15T04:17:52;101607.75;;;7.43;64.09
47716;BME280;33476;50.984;3.538;2023-03-15T04:20:24;101602.50;;;7.44;64.17
47716;BME280;33476;50.984;3.538;2023-03-15T04:22:50;101605.78;;;7.52;64.14
47716;BME280;33476;50.984;3.538;2023-03-15T04:25:16;101610.06;;;7.55;64.10
47716;BME280;33476;50.984;3.538;2023-03-15T04:27:41;101612.72;;;7.53;63.88
47716;BME280;33476;50.984;3.538;2023-03-15T04:30:07;101615.25;;;7.56;64.65
47716;BME280;33476;50.984;3.538;2023-03-15T04:32:33;101613.50;;;7.57;64.91
47716;BME280;33476;50.984;3.538;2023-03-15T04:34:58;101620.41;;;7.58;64.35
47716;BME280;33476;50.984;3.538;2023-03-15T04:37:24;101622.19;;;7.56;64.54
47716;BME280;33476;50.984;3.538;2023-03-15T04:39:49;101618.78;;;7.54;64.53
47716;BME280;33476;50.984;3.538;2023-03-15T04:42:16;101624.88;;;7.51;64.95
47716;BME280;33476;50.984;3.538;2023-03-15T04:44:42;101625.81;;;7.49;64.71
47716;BME280;33476;50.984;3.538;2023-03-15T04:47:07;101634.50;;;7.48;64.34
47716;BME280;33476;50.984;3.538;2023-03-15T04:49:33;101638.00;;;7.47;64.73
47716;BME280;33476;50.984;3.538;2023-03-15T04:51:58;101639.78;;;7.43;65.07
47716;BME280;33476;50.984;3.538;2023-03-15T04:54:23;101639.84;;;7.40;64.36
47716;BME280;33476;50.984;3.538;2023-03-15T04:56:49;101643.34;;;7.39;64.53
47716;BME280;33476;50.984;3.538;2023-03-15T04:59:14;101652.97;;;7.34;64.94
47716;BME280;33476;50.984;3.538;2023-03-15T05:01:40;101660.81;;;7.32;65.01
47716;BME280;33476;50.984;3.538;2023-03-15T05:04:05;101669.53;;;7.30;64.59
47716;BME280;33476;50.984;3.538;2023-03-15T05:06:30;101668.69;;;7.29;64.95
47716;BME280;33476;50.984;3.538;2023-03-15T05:08:56;101676.47;;;7.29;64.49
47716;BME280;33476;50.984;3.538;2023-03-15T05:11:21;101666.97;;;7.27;64.76
47716;BME280;33476;50.984;3.538;2023-03-15T05:13:46;101677.38;;;7.28;64.55
47716;BME280;33476;50.984;3.538;2023-03-15T05:16:12;101686.03;;;7.27;64.24
47716;BME280;33476;50.984;3.538;2023-03-15T05:18:37;101686.88;;;7.28;64.40
47716;BME280;33476;50.984;3.538;2023-03-15T05:21:04;101678.25;;;7.26;64.87
47716;BME280;33476;50.984;3.538;2023-03-15T05:23:30;101679.19;;;7.23;64.66
47716;BME280;33476;50.984;3.538;2023-03-15T05:25:58;101674.88;;;7.22;64.69
47716;BME280;33476;50.984;3.538;2023-03-15T05:28:25;101684.44;;;7.22;64.38
47716;BME280;33476;50.984;3.538;2023-03-15T05:30:51;101692.25;;;7.20;64.67
47716;BME280;33476;50.984;3.538;2023-03-15T05:33:17;101694.00;;;7.18;64.95
47716;BME280;33476;50.984;3.538;2023-03-15T05:35:43;101700.06;;;7.19;65.06
47716;BME280;33476;50.984;3.538;2023-03-15T05:38:10;101696.56;;;7.21;64.73
47716;BME280;33476;50.984;3.538;2023-03-15T05:40:42;101698.22;;;7.24;64.53
47716;BME280;33476;50.984;3.538;2023-03-15T05:43:07;101700.78;;;7.25;64.82
47716;BME280;33476;50.984;3.538;2023-03-15T05:45:33;101701.66;;;7.26;64.37
47716;BME280;33476;50.984;3.538;2023-03-15T05:47:58;101704.25;;;7.26;64.75
47716;BME280;33476;50.984;3.538;2023-03-15T05:50:23;101702.56;;;7.23;65.11
47716;BME280;33476;50.984;3.538;2023-03-15T05:52:52;101703.50;;;7.19;64.95
47716;BME280;33476;50.984;3.538;2023-03-15T05:55:17;101705.25;;;7.20;64.59
47716;BME280;33476;50.984;3.538;2023-03-15T05:57:43;101710.44;;;7.20;64.71
47716;BME280;33476;50.984;3.538;2023-03-15T06:00:09;101715.66;;;7.20;65.02
47716;BME280;33476;50.984;3.538;2023-03-15T06:02:34;101721.72;;;7.18;64.80
47716;BME280;33476;50.984;3.538;2023-03-15T06:05:00;101725.25;;;7.15;65.09
47716;BME280;33476;50.984;3.538;2023-03-15T06:07:25;101727.88;;;7.14;64.56
47716;BME280;33476;50.984;3.538;2023-03-15T06:09:51;101730.50;;;7.14;65.11
47716;BME280;33476;50.984;3.538;2023-03-15T06:12:17;101733.97;;;7.13;65.21
47716;BME280;33476;50.984;3.538;2023-03-15T06:14:42;101724.47;;;7.12;64.91
47716;BME280;33476;50.984;3.538;2023-03-15T06:17:07;101740.06;;;7.10;65.01
47716;BME280;33476;50.984;3.538;2023-03-15T06:19:33;101739.22;;;7.10;64.59
47716;BME280;33476;50.984;3.538;2023-03-15T06:21:58;101739.22;;;7.10;64.37
47716;BME280;33476;50.984;3.538;2023-03-15T06:24:24;101741.84;;;7.08;65.11
47716;BME280;33476;50.984;3.538;2023-03-15T06:26:49;101744.47;;;7.07;64.64
47716;BME280;33476;50.984;3.538;2023-03-15T06:29:15;101754.88;;;7.07;64.56
47716;BME280;33476;50.984;3.538;2023-03-15T06:31:41;101754.88;;;7.07;64.54
47716;BME280;33476;50.984;3.538;2023-03-15T06:34:07;101753.09;;;7.09;64.26
47716;BME280;33476;50.984;3.538;2023-03-15T06:36:33;101753.97;;;7.08;64.90
47716;BME280;33476;50.984;3.538;2023-03-15T06:38:58;101754.00;;;7.06;64.18
47716;BME280;33476;50.984;3.538;2023-03-15T06:41:24;101755.75;;;7.06;64.72
47716;BME280;33476;50.984;3.538;2023-03-15T06:43:50;101757.44;;;7.08;64.39
47716;BME280;33476;50.984;3.538;2023-03-15T06:46:16;101773.81;;;7.12;64.07
47716;BME280;33476;50.984;3.538;2023-03-15T06:48:41;101768.53;;;7.16;64.50
47716;BME280;33476;50.984;3.538;2023-03-15T06:51:07;101767.59;;;7.19;64.35
47716;BME280;33476;50.984;3.538;2023-03-15T06:53:33;101774.50;;;7.21;64.60
47716;BME280;33476;50.984;3.538;2023-03-15T06:55:59;101779.56;;;7.27;64.74
47716;BME280;33476;50.984;3.538;2023-03-15T06:58:24;101782.06;;;7.33;64.57
47716;BME280;33476;50.984;3.538;2023-03-15T07:00:50;101783.72;;;7.38;64.74
47716;BME280;33476;50.984;3.538;2023-03-15T07:03:15;101791.41;;;7.42;64.63
47716;BME280;33476;50.984;3.538;2023-03-15T07:05:40;101799.09;;;7.48;64.85
47716;BME280;33476;50.984;3.538;2023-03-15T07:08:06;101799.00;;;7.53;64.23
47716;BME280;33476;50.984;3.538;2023-03-15T07:10:31;101801.59;;;7.54;64.48
47716;BME280;33476;50.984;3.538;2023-03-15T07:12:57;101804.91;;;7.63;64.03
47716;BME280;33476;50.984;3.538;2023-03-15T07:15:22;101813.38;;;7.72;63.78
47716;BME280;33476;50.984;3.538;2023-03-15T07:17:47;101817.50;;;7.82;64.31
47716;BME280;33476;50.984;3.538;2023-03-15T07:20:13;101824.31;;;7.88;64.15
47716;BME280;33476;50.984;3.538;2023-03-15T07:22:38;101834.59;;;7.93;64.06
47716;BME280;33476;50.984;3.538;2023-03-15T07:25:04;101838.00;;;7.98;63.82
47716;BME280;33476;50.984;3.538;2023-03-15T07:27:33;101844.81;;;8.03;63.51
47716;BME280;33476;50.984;3.538;2023-03-15T07:29:59;101846.41;;;8.09;63.90
47716;BME280;33476;50.984;3.538;2023-03-15T07:32:25;101848.03;;;8.14;63.92
47716;BME280;33476;50.984;3.538;2023-03-15T07:34:50;101850.44;;;8.24;64.10
47716;BME280;33476;50.984;3.538;2023-03-15T07:37:15;101853.78;;;8.30;64.06
47716;BME280;33476;50.984;3.538;2023-03-15T07:39:41;101868.44;;;8.36;63.33
47716;BME280;33476;50.984;3.538;2023-03-15T07:42:07;101863.97;;;8.41;63.26
47716;BME280;33476;50.984;3.538;2023-03-15T07:44:32;101862.94;;;8.48;63.50
47716;BME280;33476;50.984;3.538;2023-03-15T07:46:57;101869.66;;;8.58;63.67
47716;BME280;33476;50.984;3.538;2023-03-15T07:49:23;101867.78;;;8.65;63.49
47716;BME280;33476;50.984;3.538;2023-03-15T07:51:48;101864.97;;;8.72;62.81
47716;BME280;33476;50.984;3.538;2023-03-15T07:54:13;101874.34;;;8.81;62.99
47716;BME280;33476;50.984;3.538;2023-03-15T07:56:39;101872.53;;;8.83;62.91
47716;BME280;33476;50.984;3.538;2023-03-15T07:59:04;101879.28;;;8.92;62.75
47716;BME280;33476;50.984;3.538;2023-03-15T08:01:29;101865.09;;;9.04;62.49
47716;BME280;33476;50.984;3.538;2023-03-15T08:03:54;101873.41;;;9.19;62.42
47716;BME280;33476;50.984;3.538;2023-03-15T08:06:20;101879.28;;;9.27;62.50
47716;BME280;33476;50.984;3.538;2023-03-15T08:08:45;101879.03;;;9.37;61.84
47716;BME280;33476;50.984;3.538;2023-03-15T08:11:11;101880.50;;;9.47;62.12
47716;BME280;33476;50.984;3.538;2023-03-15T08:13:36;101878.66;;;9.50;61.95
47716;BME280;33476;50.984;3.538;2023-03-15T08:16:02;101888.78;;;9.63;61.32
47716;BME280;33476;50.984;3.538;2023-03-15T08:18:27;101890.22;;;9.73;61.42
47716;BME280;33476;50.984;3.538;2023-03-15T08:20:55;101892.59;;;9.82;60.72
47716;BME280;33476;50.984;3.538;2023-03-15T08:23:21;101904.47;;;9.94;60.06
47716;BME280;33476;50.984;3.538;2023-03-15T08:25:47;101903.28;;;10.04;59.74
47716;BME280;33476;50.984;3.538;2023-03-15T08:28:13;101903.75;;;10.18;59.87
47716;BME280;33476;50.984;3.538;2023-03-15T08:30:39;101910.50;;;10.27;59.39
47716;BME280;33476;50.984;3.538;2023-03-15T08:33:06;101901.44;;;10.38;59.01
47716;BME280;33476;50.984;3.538;2023-03-15T08:35:31;101906.16;;;10.55;58.91
47716;BME280;33476;50.984;3.538;2023-03-15T08:37:58;101910.19;;;10.65;58.68
47716;BME280;33476;50.984;3.538;2023-03-15T08:40:24;101907.91;;;10.83;58.23
47716;BME280;33476;50.984;3.538;2023-03-15T08:42:50;101909.13;;;10.99;57.70
47716;BME280;33476;50.984;3.538;2023-03-15T08:45:15;101914.28;;;11.02;56.96
47716;BME280;33476;50.984;3.538;2023-03-15T08:47:40;101918.34;;;11.11;56.47
47716;BME280;33476;50.984;3.538;2023-03-15T08:50:14;101916.41;;;11.17;56.00
47716;BME280;33476;50.984;3.538;2023-03-15T08:52:39;101926.13;;;11.39;55.51
47716;BME280;33476;50.984;3.538;2023-03-15T08:55:06;101928.94;;;11.59;54.66
47716;BME280;33476;50.984;3.538;2023-03-15T08:57:31;101922.13;;;11.78;54.25
47716;BME280;33476;50.984;3.538;2023-03-15T08:59:58;101929.53;;;11.92;53.87
47716;BME280;33476;50.984;3.538;2023-03-15T09:02:24;101929.38;;;11.97;54.15
47716;BME280;33476;50.984;3.538;2023-03-15T09:04:49;101935.56;;;11.94;53.85
47716;BME280;33476;50.984;3.538;2023-03-15T09:07:21;101935.00;;;11.86;53.80
47716;BME280;33476;50.984;3.538;2023-03-15T09:09:47;101935.50;;;11.71;54.00
47716;BME280;33476;50.984;3.538;2023-03-15T09:12:16;101931.81;;;11.51;54.01
47716;BME280;33476;50.984;3.538;2023-03-15T09:14:41;101936.59;;;11.64;53.41
47716;BME280;33476;50.984;3.538;2023-03-15T09:17:07;101934.44;;;11.76;53.06
47716;BME280;33476;50.984;3.538;2023-03-15T09:19:32;101935.22;;;11.78;52.74
47716;BME280;33476;50.984;3.538;2023-03-15T09:21:58;101931.66;;;11.81;51.97
47716;BME280;33476;50.984;3.538;2023-03-15T09:24:23;101927.34;;;11.80;51.74
47716;BME280;33476;50.984;3.538;2023-03-15T09:26:48;101923.81;;;11.81;52.06
47716;BME280;33476;50.984;3.538;2023-03-15T09:29:13;101925.91;;;11.96;51.97
47716;BME280;33476;50.984;3.538;2023-03-15T09:31:39;101930.25;;;12.21;51.60
47716;BME280;33476;50.984;3.538;2023-03-15T09:34:04;101933.72;;;12.45;49.90
47716;BME280;33476;50.984;3.538;2023-03-15T09:36:31;101925.31;;;12.58;49.20
47716;BME280;33476;50.984;3.538;2023-03-15T09:38:56;101933.78;;;12.65;49.04
47716;BME280;33476;50.984;3.538;2023-03-15T09:41:43;101930.31;;;12.64;49.26
47716;BME280;33476;50.984;3.538;2023-03-15T09:46:56;101935.56;;;12.86;48.24
47716;BME280;33476;50.984;3.538;2023-03-15T09:52:24;101931.06;;;12.90;46.93
47716;BME280;33476;50.984;3.538;2023-03-15T09:55:04;101926.34;;;12.98;46.66
47716;BME280;33476;50.984;3.538;2023-03-15T09:57:57;101921.66;;;13.06;46.11
47716;BME280;33476;50.984;3.538;2023-03-15T10:03:01;101933.75;;;13.32;46.40
47716;BME280;33476;50.984;3.538;2023-03-15T10:05:37;101938.09;;;13.33;45.60
47716;BME280;33476;50.984;3.538;2023-03-15T10:08:12;101937.03;;;13.37;45.05
47716;BME280;33476;50.984;3.538;2023-03-15T10:13:44;101938.84;;;13.57;45.63
47716;BME280;33476;50.984;3.538;2023-03-15T10:16:47;101942.75;;;13.47;43.92
47716;BME280;33476;50.984;3.538;2023-03-15T10:21:57;101955.00;;;13.46;44.63
47716;BME280;33476;50.984;3.538;2023-03-15T10:27:27;101956.78;;;13.46;42.96
47716;BME280;33476;50.984;3.538;2023-03-15T10:29:57;101959.28;;;13.49;43.27
47716;BME280;33476;50.984;3.538;2023-03-15T10:32:29;101952.28;;;13.49;43.22
47716;BME280;33476;50.984;3.538;2023-03-15T10:34:56;101952.81;;;13.58;42.78
47716;BME280;33476;50.984;3.538;2023-03-15T10:37:23;101958.06;;;13.58;43.06
47716;BME280;33476;50.984;3.538;2023-03-15T10:39:57;101966.56;;;13.63;42.90
47716;BME280;33476;50.984;3.538;2023-03-15T10:42:30;101958.06;;;13.58;42.89
47716;BME280;33476;50.984;3.538;2023-03-15T10:44:56;101965.97;;;13.36;42.59
47716;BME280;33476;50.984;3.538;2023-03-15T10:47:23;101964.88;;;13.19;43.24
47716;BME280;33476;50.984;3.538;2023-03-15T10:49:49;101970.78;;;13.03;43.82
47716;BME280;33476;50.984;3.538;2023-03-15T10:52:35;101972.06;;;12.92;43.88
47716;BME280;33476;50.984;3.538;2023-03-15T10:55:04;101973.88;;;13.12;43.72
47716;BME280;33476;50.984;3.538;2023-03-15T10:57:37;101972.97;;;13.35;43.79
47716;BME280;33476;50.984;3.538;2023-03-15T11:00:17;101974.50;;;13.61;43.43
47716;BME280;33476;50.984;3.538;2023-03-15T11:03:20;101969.63;;;13.74;43.34
47716;BME280;33476;50.984;3.538;2023-03-15T11:05:50;101972.81;;;13.60;42.65
47716;BME280;33476;50.984;3.538;2023-03-15T11:08:18;101980.22;;;13.51;42.04
47716;BME280;33476;50.984;3.538;2023-03-15T11:10:46;101987.03;;;13.55;42.08
47716;BME280;33476;50.984;3.538;2023-03-15T11:13:19;101981.28;;;13.67;42.37
47716;BME280;33476;50.984;3.538;2023-03-15T11:16:06;101985.28;;;13.75;42.74
47716;BME280;33476;50.984;3.538;2023-03-15T11:18:54;101987.59;;;13.83;42.07
47716;BME280;33476;50.984;3.538;2023-03-15T11:21:24;101988.31;;;13.87;42.19
47716;BME280;33476;50.984;3.538;2023-03-15T11:23:53;101989.75;;;13.94;41.80
47716;BME280;33476;50.984;3.538;2023-03-15T11:26:22;101979.84;;;14.00;42.31
47716;BME280;33476;50.984;3.538;2023-03-15T11:28:57;101974.75;;;14.16;42.83
47716;BME280;33476;50.984;3.538;2023-03-15T11:31:26;101965.28;;;14.32;41.10
47716;BME280;33476;50.984;3.538;2023-03-15T11:33:58;101962.34;;;14.39;39.94
47716;BME280;33476;50.984;3.538;2023-03-15T11:36:27;101964.78;;;14.43;38.36
47716;BME280;33476;50.984;3.538;2023-03-15T11:38:54;101955.47;;;14.36;38.76
47716;BME280;33476;50.984;3.538;2023-03-15T11:44:01;101960.97;;;14.30;38.01
47716;BME280;33476;50.984;3.538;2023-03-15T11:46:34;101967.59;;;14.20;38.37
47716;BME280;33476;50.984;3.538;2023-03-15T11:49:16;101961.41;;;14.21;38.64
47716;BME280;33476;50.984;3.538;2023-03-15T11:51:43;101958.66;;;14.24;37.89
47716;BME280;33476;50.984;3.538;2023-03-15T11:54:16;101957.72;;;14.25;38.09
47716;BME280;33476;50.984;3.538;2023-03-15T11:59:14;101974.44;;;14.24;37.41
47716;BME280;33476;50.984;3.538;2023-03-15T12:10:28;101965.63;;;14.25;38.11
47716;BME280;33476;50.984;3.538;2023-03-15T12:12:47;101953.06;;;14.31;37.25
47716;BME280;33476;50.984;3.538;2023-03-15T12:17:55;101953.69;;;13.97;37.73
47716;BME280;33476;50.984;3.538;2023-03-15T12:20:36;101959.28;;;13.69;38.07
47716;BME280;33476;50.984;3.538;2023-03-15T12:25:42;101942.75;;;13.67;38.82
47716;BME280;33476;50.984;3.538;2023-03-15T12:28:19;101945.56;;;13.63;39.43
47716;BME280;33476;50.984;3.538;2023-03-15T12:30:52;101939.41;;;13.64;39.66
47716;BME280;33476;50.984;3.538;2023-03-15T12:33:20;101944.47;;;13.68;39.54
47716;BME280;33476;50.984;3.538;2023-03-15T12:35:47;101945.25;;;13.70;39.17
47716;BME280;33476;50.984;3.538;2023-03-15T12:38:19;101938.28;;;13.69;39.22
47716;BME280;33476;50.984;3.538;2023-03-15T12:40:57;101941.75;;;13.70;39.46
47716;BME280;33476;50.984;3.538;2023-03-15T12:51:53;101939.34;;;13.86;39.40
47716;BME280;33476;50.984;3.538;2023-03-15T12:54:19;101937.97;;;13.77;39.55
47716;BME280;33476;50.984;3.538;2023-03-15T12:56:47;101935.72;;;13.68;39.83
47716;BME280;33476;50.984;3.538;2023-03-15T12:59:35;101938.53;;;13.63;40.23
47716;BME280;33476;50.984;3.538;2023-03-15T13:02:30;101935.84;;;13.65;40.07
47716;BME280;33476;50.984;3.538;2023-03-15T13:05:03;101941.25;;;13.62;39.47
47716;BME280;33476;50.984;3.538;2023-03-15T13:10:31;101938.47;;;13.65;40.48
47716;BME280;33476;50.984;3.538;2023-03-15T13:18:31;101928.75;;;13.87;38.89
47716;BME280;33476;50.984;3.538;2023-03-15T13:21:27;101928.44;;;13.74;38.79
47716;BME280;33476;50.984;3.538;2023-03-15T13:23:56;101936.34;;;13.74;38.55
47716;BME280;33476;50.984;3.538;2023-03-15T13:26:31;101929.63;;;13.67;38.36
47716;BME280;33476;50.984;3.538;2023-03-15T13:29:02;101931.00;;;13.76;38.21
47716;BME280;33476;50.984;3.538;2023-03-15T13:31:33;101923.72;;;13.83;38.17
47716;BME280;33476;50.984;3.538;2023-03-15T13:34:20;101941.63;;;13.73;38.30
47716;BME280;33476;50.984;3.538;2023-03-15T13:36:58;101934.81;;;13.69;37.87
47716;BME280;33476;50.984;3.538;2023-03-15T13:39:34;101937.38;;;13.70;37.95
47716;BME280;33476;50.984;3.538;2023-03-15T13:42:05;101941.50;;;13.76;37.55
47716;BME280;33476;50.984;3.538;2023-03-15T13:44:31;101948.94;;;13.66;38.40
47716;BME280;33476;50.984;3.538;2023-03-15T13:46:57;101943.72;;;13.65;37.83
47716;BME280;33476;50.984;3.538;2023-03-15T13:49:24;101949.50;;;13.53;37.72
47716;BME280;33476;50.984;3.538;2023-03-15T13:51:54;101941.81;;;13.48;38.05
47716;BME280;33476;50.984;3.538;2023-03-15T13:54:27;101944.19;;;13.54;37.80
47716;BME280;33476;50.984;3.538;2023-03-15T13:57:06;101947.81;;;13.52;37.52
47716;BME280;33476;50.984;3.538;2023-03-15T13:59:43;101944.84;;;13.59;37.74
47716;BME280;33476;50.984;3.538;2023-03-15T14:02:17;101948.72;;;13.71;37.57
47716;BME280;33476;50.984;3.538;2023-03-15T14:04:49;101942.16;;;13.61;36.17